KAAO

Colonel James Jabara Airport

Wichita, Kansas, USA
METAR KAAO 241454Z AUTO 27010G16KT 10SM CLR 23/18 A2993 RMK AO2 SLP121 6//// T02280183 53057 PNO $
Observed Flight Rules
Jun-24 @ 14:54 UTC (10 minutes ago) Visual Flight Rules
Wind Visibility Clouds
270° at 10 knots
 Gusting to 16 knots
10 miles
  • Clear skies
Temperatures Readings
Current 23°C / 73°F
Dewpoint 18°C / 64°F
Humidity 74%
Altimeter 29.93" Hg
Pressure 1012.1 hPa
Elevation 434
METAR KAAO 241454Z AUTO 27010G16KT 10SM CLR 23/18 A2993 RMK AO2 SLP121 6//// T02280183 53057 PNO $
Observed Flight Rules
Jun-24 @ 14:54 UTC
(10 minutes ago)
VFR
Wind Visibility
270° at 10 knots
 Gusting to 16 knots
10 miles
Clouds
  • Clear skies
Temperature Dewpoint
23°C / 73°F 18°C / 64°F
Humidity Altimeter Pressure
74% 29.93" Hg 1012.1 hPa